createdAt,value
2022-10-29T00:04:42.275Z,23.63
2022-10-29T00:09:45.200Z,19.03
2022-10-29T00:14:48.119Z,21.83
2022-10-29T00:19:52.439Z,22.60
2022-10-29T00:24:55.395Z,28.30
2022-10-29T00:29:58.282Z,19.83
2022-10-29T00:35:02.547Z,20.70
2022-10-29T00:40:05.945Z,15.90
2022-10-29T00:45:18.842Z,18.20
2022-10-29T00:50:25.770Z,13.53
2022-10-29T00:55:28.933Z,24.63
2022-10-29T01:00:31.836Z,14.20
2022-10-29T01:05:37.290Z,17.90
2022-10-29T01:10:55.528Z,6.40
2022-10-29T01:16:05.785Z,14.10
2022-10-29T01:21:42.736Z,17.50
2022-10-29T01:27:16.581Z,12.77
2022-10-29T01:32:29.894Z,10.50
2022-10-29T01:37:39.996Z,16.10
2022-10-29T01:42:49.777Z,18.20
2022-10-29T01:47:57.548Z,12.93
2022-10-29T01:53:01.946Z,12.87
2022-10-29T01:58:04.998Z,10.27
2022-10-29T02:03:19.363Z,11.97
2022-10-29T02:08:31.808Z,8.67
2022-10-29T02:13:45.428Z,11.60
2022-10-29T02:18:50.544Z,14.50
2022-10-29T02:23:53.999Z,10.33
2022-10-29T02:28:56.964Z,8.33
2022-10-29T02:34:01.262Z,12.50
2022-10-29T02:39:04.435Z,8.73
2022-10-29T02:44:07.358Z,11.90
2022-10-29T02:49:11.644Z,9.00
2022-10-29T02:54:14.546Z,12.17
2022-10-29T02:59:17.454Z,12.27
2022-10-29T03:04:21.764Z,12.20
2022-10-29T03:09:24.689Z,11.43
2022-10-29T03:14:27.588Z,13.20
2022-10-29T03:19:31.856Z,13.27
2022-10-29T03:24:34.742Z,16.23
2022-10-29T03:29:37.639Z,20.23
2022-10-29T03:34:41.883Z,19.70
2022-10-29T03:39:44.770Z,16.57
2022-10-29T03:44:47.620Z,11.43
2022-10-29T03:49:51.917Z,15.70
2022-10-29T03:54:54.987Z,12.80
2022-10-29T03:59:57.885Z,16.53
2022-10-29T04:05:02.141Z,12.00
2022-10-29T04:10:05.912Z,10.40
2022-10-29T04:15:09.430Z,16.43
2022-10-29T04:20:29.713Z,15.77
2022-10-29T04:31:04.300Z,17.27
2022-10-29T04:36:09.371Z,13.67
2022-10-29T04:41:12.322Z,17.43
2022-10-29T04:46:15.255Z,21.90
2022-10-29T04:51:23.909Z,25.50
2022-10-29T04:56:26.775Z,22.30
2022-10-29T05:01:31.002Z,18.87
2022-10-29T05:06:35.342Z,18.50
2022-10-29T05:11:38.302Z,26.40
2022-10-29T05:16:41.170Z,23.87
2022-10-29T05:21:45.408Z,20.43
2022-10-29T05:26:48.317Z,16.30
2022-10-29T05:31:54.323Z,17.63
2022-10-29T05:36:58.582Z,18.20
2022-10-29T05:42:01.490Z,16.57
2022-10-29T05:47:04.535Z,16.73
2022-10-29T05:52:09.930Z,18.03
2022-10-29T05:57:12.842Z,16.93
2022-10-29T06:02:16.088Z,20.53
2022-10-29T06:07:20.417Z,17.97
2022-10-29T06:12:23.341Z,17.83
2022-10-29T06:17:26.385Z,28.67
2022-10-29T06:22:30.959Z,22.10
2022-10-29T06:27:34.072Z,18.53
2022-10-29T06:32:37.148Z,21.93
2022-10-29T06:37:41.498Z,22.37
2022-10-29T06:42:44.798Z,22.43
2022-10-29T06:47:48.240Z,21.60
2022-10-29T06:53:03.843Z,21.40
2022-10-29T06:58:09.212Z,18.90
2022-10-29T07:03:14.001Z,21.07
2022-10-29T07:08:18.739Z,20.00
2022-10-29T07:13:21.753Z,16.63
2022-10-29T07:18:24.687Z,19.60
2022-10-29T07:28:33.169Z,19.60
2022-10-29T07:33:36.129Z,27.57
2022-10-29T07:38:40.381Z,15.87
2022-10-29T07:43:43.364Z,17.27
2022-10-29T07:48:47.007Z,16.87
2022-10-29T07:53:51.301Z,22.10
2022-10-29T07:58:54.188Z,18.70
2022-10-29T08:03:57.088Z,15.70
2022-10-29T08:09:01.401Z,17.33
2022-10-29T08:14:04.436Z,17.00
2022-10-29T08:19:07.369Z,17.60
2022-10-29T08:24:12.608Z,16.20
2022-10-29T08:29:17.858Z,18.27
2022-10-29T08:34:21.607Z,14.43
2022-10-29T08:39:25.874Z,17.50
2022-10-29T08:45:04.397Z,15.00
2022-10-29T08:50:16.792Z,14.60
2022-10-29T08:55:24.095Z,19.47
2022-10-29T09:00:33.096Z,23.80
2022-10-29T09:05:50.479Z,12.27
2022-10-29T09:10:57.007Z,16.07
2022-10-29T09:16:31.342Z,16.63
2022-10-29T09:21:39.783Z,15.33
2022-10-29T09:26:59.208Z,15.37
2022-10-29T09:32:05.518Z,18.17
2022-10-29T09:37:16.398Z,19.33
2022-10-29T09:42:27.695Z,21.33
2022-10-29T09:47:40.047Z,20.00
2022-10-29T09:52:45.082Z,21.00
2022-10-29T09:57:49.792Z,19.70
2022-10-29T10:02:58.732Z,22.00
2022-10-29T10:08:10.612Z,28.20
2022-10-29T10:13:17.708Z,23.50
2022-10-29T10:18:24.402Z,20.00
2022-10-29T10:23:29.371Z,22.50
2022-10-29T10:28:35.476Z,22.27
2022-10-29T10:33:49.531Z,19.00
2022-10-29T10:38:54.822Z,20.93
2022-10-29T10:44:01.446Z,19.70
2022-10-29T10:49:07.320Z,24.33
2022-10-29T10:54:28.134Z,20.30
2022-10-29T10:59:45.789Z,25.93
2022-10-29T11:04:53.292Z,22.13
2022-10-29T11:09:58.473Z,20.53
2022-10-29T11:15:08.408Z,18.63
2022-10-29T11:20:20.468Z,18.90
2022-10-29T11:25:31.385Z,17.97
2022-10-29T11:30:45.948Z,21.27
2022-10-29T11:35:53.965Z,23.37
2022-10-29T11:41:05.963Z,24.10
2022-10-29T11:46:22.832Z,25.90
2022-10-29T11:51:34.260Z,22.57
2022-10-29T11:56:49.217Z,20.63
2022-10-29T12:02:06.143Z,19.20
2022-10-29T12:07:23.892Z,24.87
2022-10-29T12:12:32.170Z,18.97
2022-10-29T12:17:43.432Z,21.20
2022-10-29T12:22:55.809Z,25.07
2022-10-29T12:28:19.141Z,21.00
2022-10-29T12:33:28.808Z,21.93
2022-10-29T12:38:39.679Z,24.33
2022-10-29T12:43:43.729Z,25.93
2022-10-29T12:48:55.743Z,28.37
2022-10-29T12:54:16.490Z,27.20
2022-10-29T12:59:37.836Z,26.53
2022-10-29T13:05:16.310Z,22.67
2022-10-29T13:10:48.823Z,25.87
2022-10-29T13:16:00.677Z,27.10
2022-10-29T13:21:05.148Z,31.30
2022-10-29T13:26:08.746Z,28.30
2022-10-29T13:31:47.842Z,36.80
2022-10-29T13:36:52.163Z,32.90
2022-10-29T13:41:55.931Z,33.07
2022-10-29T13:47:01.655Z,37.90
2022-10-29T13:52:13.074Z,33.00
2022-10-29T13:57:22.281Z,19.03
2022-10-29T14:02:33.223Z,16.93
2022-10-29T14:07:45.675Z,21.90
2022-10-29T14:12:51.161Z,24.70
2022-10-29T14:17:54.106Z,24.60
2022-10-29T14:22:58.823Z,31.10
2022-10-29T14:28:18.731Z,36.23
2022-10-29T14:33:26.721Z,31.43
2022-10-29T14:38:38.802Z,28.17
2022-10-29T14:43:42.708Z,33.40
2022-10-29T14:48:55.688Z,34.53
2022-10-29T14:54:03.392Z,32.90
2022-10-29T14:59:14.539Z,39.73
2022-10-29T15:04:20.761Z,35.13
2022-10-29T15:09:28.672Z,26.43
2022-10-29T15:14:40.332Z,36.27
2022-10-29T15:19:46.214Z,34.73
2022-10-29T15:24:53.393Z,28.33
2022-10-29T15:29:56.731Z,34.63
2022-10-29T15:35:00.477Z,41.00
2022-10-29T15:40:08.700Z,47.97
2022-10-29T15:45:20.957Z,42.57
2022-10-29T15:50:27.181Z,53.80
2022-10-29T15:55:33.484Z,35.80
2022-10-29T16:00:36.647Z,36.97
2022-10-29T16:05:39.605Z,29.07
2022-10-29T16:10:43.896Z,29.33
2022-10-29T16:15:46.865Z,30.27
2022-10-29T16:20:51.070Z,23.53
2022-10-29T16:25:55.826Z,25.77
2022-10-29T16:31:01.037Z,30.00
2022-10-29T16:36:04.522Z,33.67
2022-10-29T16:41:13.545Z,29.53
2022-10-29T16:46:16.674Z,34.40
2022-10-29T16:51:19.740Z,31.47
2022-10-29T16:56:24.383Z,33.93
2022-10-29T17:01:27.704Z,34.23
2022-10-29T17:06:30.703Z,39.23
2022-10-29T17:11:34.994Z,48.10
2022-10-29T17:16:38.172Z,53.27
2022-10-29T17:21:41.586Z,91.90
2022-10-29T17:26:45.938Z,60.53
2022-10-29T17:31:49.413Z,58.60
2022-10-29T17:36:53.444Z,47.90
2022-10-29T17:41:57.815Z,39.20
2022-10-29T17:47:00.998Z,41.00
2022-10-29T17:52:03.929Z,50.60
2022-10-29T17:57:08.276Z,49.80
2022-10-29T18:02:12.520Z,68.40
2022-10-29T18:07:15.546Z,74.40
2022-10-29T18:12:19.864Z,75.47
2022-10-29T18:17:22.917Z,84.17
2022-10-29T18:22:25.911Z,87.97
2022-10-29T18:27:30.259Z,73.73
2022-10-29T18:32:33.321Z,68.03
2022-10-29T18:37:36.234Z,68.63
2022-10-29T18:42:40.525Z,68.50
2022-10-29T18:47:43.755Z,69.37
2022-10-29T18:52:46.801Z,69.83
2022-10-29T18:57:51.566Z,60.00
2022-10-29T19:02:55.076Z,63.63
2022-10-29T19:07:58.597Z,62.40
2022-10-29T19:13:03.220Z,60.63
2022-10-29T19:18:06.662Z,59.27
2022-10-29T19:23:09.587Z,54.77
2022-10-29T19:28:14.087Z,57.57
2022-10-29T19:33:17.821Z,56.80
2022-10-29T19:38:20.842Z,58.97
2022-10-29T19:43:26.070Z,58.77
2022-10-29T19:48:28.996Z,67.30
2022-10-29T19:53:32.511Z,67.50
2022-10-29T19:58:36.847Z,59.23
2022-10-29T20:03:40.144Z,60.17
2022-10-29T20:08:43.473Z,67.93
2022-10-29T20:13:47.881Z,75.17
2022-10-29T20:18:51.461Z,65.43
2022-10-29T20:23:56.167Z,62.93
2022-10-29T20:29:01.136Z,64.70
2022-10-29T20:34:04.218Z,74.23
2022-10-29T20:39:07.311Z,56.43
2022-10-29T20:44:11.570Z,55.50
2022-10-29T20:49:14.469Z,57.10
2022-10-29T20:54:17.430Z,51.80
2022-10-29T20:59:21.679Z,44.40
2022-10-29T21:04:24.659Z,43.07
2022-10-29T21:09:27.542Z,42.80
2022-10-29T21:14:31.787Z,41.80
2022-10-29T21:19:34.775Z,44.93
2022-10-29T21:24:39.256Z,41.07
2022-10-29T21:29:46.034Z,42.00
2022-10-29T21:34:48.941Z,43.47
2022-10-29T21:39:51.822Z,44.47
2022-10-29T21:44:56.121Z,44.93
2022-10-29T21:49:59.024Z,42.17
2022-10-29T21:55:01.937Z,44.53
2022-10-29T22:00:10.985Z,42.60
2022-10-29T22:05:13.974Z,46.23
2022-10-29T22:10:17.050Z,44.20
2022-10-29T22:15:21.294Z,36.07
2022-10-29T22:20:24.194Z,36.10
2022-10-29T22:25:27.056Z,36.60
2022-10-29T22:30:31.360Z,35.10
2022-10-29T22:35:34.253Z,33.00
2022-10-29T22:40:41.456Z,33.80
2022-10-29T22:45:46.617Z,34.97
2022-10-29T22:50:49.531Z,35.80
2022-10-29T22:55:53.063Z,31.23
2022-10-29T23:01:05.659Z,41.03
2022-10-29T23:06:10.989Z,32.30
2022-10-29T23:11:19.240Z,35.93
2022-10-29T23:16:24.350Z,31.53
2022-10-29T23:21:27.473Z,29.67
2022-10-29T23:26:30.388Z,27.40
2022-10-29T23:31:34.665Z,24.07
2022-10-29T23:36:37.555Z,24.27
2022-10-29T23:41:40.497Z,24.57
2022-10-29T23:46:44.756Z,25.30
2022-10-29T23:51:47.671Z,24.70
2022-10-29T23:56:50.573Z,26.40
